createdAt,value
2024-05-09T00:00:29.594Z,4.81
2024-05-09T00:04:36.974Z,4.66
2024-05-09T00:08:22.911Z,4.61
2024-05-09T00:12:11.071Z,4.53
2024-05-09T00:15:56.674Z,4.44
2024-05-09T00:19:42.509Z,4.45
2024-05-09T00:23:29.349Z,4.38
2024-05-09T00:27:17.938Z,4.34
2024-05-09T00:31:03.758Z,4.34
2024-05-09T00:34:49.875Z,4.29
2024-05-09T00:38:35.619Z,4.19
2024-05-09T00:42:24.035Z,4.07
2024-05-09T00:46:10.172Z,3.92
2024-05-09T00:49:56.578Z,3.81
2024-05-09T00:53:42.174Z,3.70
2024-05-09T00:57:30.735Z,3.57
2024-05-09T01:01:16.726Z,3.44
2024-05-09T01:05:02.893Z,3.30
2024-05-09T01:08:48.117Z,3.21
2024-05-09T01:12:36.401Z,3.20
2024-05-09T01:16:21.986Z,3.15
2024-05-09T01:20:10.754Z,3.06
2024-05-09T01:24:04.795Z,3.04
2024-05-09T01:27:50.263Z,2.95
2024-05-09T01:31:36.393Z,2.92
2024-05-09T01:35:23.793Z,2.77
2024-05-09T01:39:12.275Z,2.67
2024-05-09T01:43:03.741Z,2.63
2024-05-09T01:46:49.416Z,2.47
2024-05-09T01:50:39.626Z,2.37
2024-05-09T01:54:30.208Z,2.31
2024-05-09T01:58:16.149Z,2.23
2024-05-09T02:02:01.908Z,2.15
2024-05-09T02:05:48.597Z,2.09
2024-05-09T02:09:36.557Z,2.03
2024-05-09T02:13:22.321Z,1.98
2024-05-09T02:17:08.296Z,1.93
2024-05-09T02:20:53.653Z,1.87
2024-05-09T02:24:42.122Z,1.77
2024-05-09T02:28:27.704Z,1.68
2024-05-09T02:32:13.405Z,1.59
2024-05-09T02:35:59.112Z,1.57
2024-05-09T02:39:44.703Z,1.52
2024-05-09T02:43:30.382Z,1.45
2024-05-09T02:47:16.185Z,1.44
2024-05-09T02:51:01.606Z,1.42
2024-05-09T02:54:49.807Z,1.35
2024-05-09T02:58:35.247Z,1.27
2024-05-09T03:02:20.870Z,1.25
2024-05-09T03:06:06.190Z,1.28
2024-05-09T03:09:54.359Z,1.26
2024-05-09T03:13:44.469Z,1.26
2024-05-09T03:17:30.228Z,1.38
2024-05-09T03:21:13.442Z,1.42
2024-05-09T03:25:01.940Z,1.43
2024-05-09T03:28:48.237Z,1.54
2024-05-09T03:32:33.449Z,1.60
2024-05-09T03:36:16.481Z,1.65
2024-05-09T03:40:09.192Z,1.70
2024-05-09T03:43:57.408Z,1.84
2024-05-09T03:47:43.166Z,1.99
2024-05-09T03:51:28.983Z,2.13
2024-05-09T03:55:17.424Z,2.28
2024-05-09T03:59:00.658Z,2.44
2024-05-09T04:02:46.716Z,2.75
2024-05-09T04:06:32.341Z,3.09
2024-05-09T04:10:27.794Z,3.31
2024-05-09T04:14:18.532Z,3.64
2024-05-09T04:18:04.347Z,4.09
2024-05-09T04:21:50.324Z,4.59
2024-05-09T04:25:38.524Z,5.01
2024-05-09T04:29:23.800Z,5.61
2024-05-09T04:33:11.940Z,7.37
2024-05-09T04:36:59.605Z,11.55
2024-05-09T04:40:48.027Z,14.33
2024-05-09T04:44:33.926Z,16.60
2024-05-09T04:48:19.495Z,17.89
2024-05-09T04:52:05.260Z,19.67
2024-05-09T04:55:51.512Z,20.24
2024-05-09T04:59:37.270Z,21.53
2024-05-09T05:03:23.078Z,21.30
2024-05-09T05:07:05.770Z,21.41
2024-05-09T05:10:54.131Z,22.57
2024-05-09T05:14:37.297Z,24.08
2024-05-09T05:18:22.713Z,22.60
2024-05-09T05:22:08.485Z,25.06
2024-05-09T05:25:54.854Z,24.82
2024-05-09T05:29:40.747Z,23.74
2024-05-09T05:33:26.662Z,24.80
2024-05-09T05:37:09.886Z,25.70
2024-05-09T05:40:58.044Z,25.06
2024-05-09T05:44:43.622Z,25.95
2024-05-09T05:48:28.893Z,26.08
2024-05-09T05:52:14.826Z,24.97
2024-05-09T05:56:00.432Z,25.36
2024-05-09T05:59:46.183Z,25.19
2024-05-09T06:03:31.929Z,27.38
2024-05-09T06:07:15.058Z,25.91
2024-05-09T06:11:03.212Z,27.31
2024-05-09T06:14:48.743Z,27.62
2024-05-09T06:18:34.616Z,28.37
2024-05-09T06:22:17.881Z,28.16
2024-05-09T06:26:07.948Z,26.59
2024-05-09T06:29:53.603Z,28.49
2024-05-09T06:33:39.383Z,28.87
2024-05-09T06:37:25.340Z,28.33
2024-05-09T06:41:13.792Z,28.57
2024-05-09T06:44:59.398Z,28.28
2024-05-09T06:48:43.396Z,27.64
2024-05-09T06:52:29.114Z,28.86
2024-05-09T06:56:17.878Z,30.13
2024-05-09T07:00:03.756Z,30.08
2024-05-09T07:03:49.614Z,30.07
2024-05-09T07:07:35.334Z,30.81
2024-05-09T07:11:23.716Z,31.95
2024-05-09T07:15:09.528Z,29.57
2024-05-09T07:18:57.221Z,30.76
2024-05-09T07:22:43.075Z,30.74
2024-05-09T07:26:31.381Z,31.17
2024-05-09T07:30:26.954Z,27.49
2024-05-09T07:34:16.835Z,27.73
2024-05-09T07:38:00.057Z,29.59
2024-05-09T07:41:48.326Z,27.97
2024-05-09T07:53:37.102Z,29.46
2024-05-09T07:57:19.346Z,30.66
2024-05-09T08:01:05.858Z,30.04
2024-05-09T08:04:51.729Z,30.25
2024-05-09T08:08:37.725Z,30.42
2024-05-09T08:12:25.943Z,31.99
2024-05-09T08:16:12.566Z,30.46
2024-05-09T08:19:58.386Z,30.00
2024-05-09T08:23:44.364Z,30.68
2024-05-09T08:27:32.573Z,29.67
2024-05-09T08:31:18.361Z,29.78
2024-05-09T08:35:04.280Z,29.66
2024-05-09T08:38:49.952Z,30.09
2024-05-09T08:42:39.799Z,29.43
2024-05-09T08:46:25.876Z,27.61
2024-05-09T08:50:24.310Z,29.03
2024-05-09T08:54:18.212Z,27.37
2024-05-09T08:58:08.586Z,28.37
2024-05-09T09:01:52.463Z,29.05
2024-05-09T09:05:41.855Z,30.18
2024-05-09T09:09:27.760Z,29.56
2024-05-09T09:13:16.160Z,28.05
2024-05-09T09:17:01.472Z,27.58
2024-05-09T09:20:47.574Z,29.25
2024-05-09T09:24:33.264Z,28.58
2024-05-09T09:28:25.536Z,28.38
2024-05-09T09:32:09.114Z,27.19
2024-05-09T09:35:54.933Z,26.30
2024-05-09T09:39:49.005Z,25.60
2024-05-09T09:43:39.006Z,25.38
2024-05-09T09:47:26.237Z,25.42
2024-05-09T09:51:12.381Z,24.20
2024-05-09T09:54:59.466Z,24.50
2024-05-09T09:58:48.423Z,23.82
2024-05-09T10:02:34.352Z,23.67
2024-05-09T10:06:21.276Z,24.01
2024-05-09T10:10:11.000Z,23.48
2024-05-09T10:14:03.926Z,23.04
2024-05-09T10:17:51.199Z,23.04
2024-05-09T10:21:37.049Z,23.18
2024-05-09T10:25:23.960Z,24.17
2024-05-09T10:29:19.882Z,23.70
2024-05-09T10:33:03.143Z,23.30
2024-05-09T10:36:49.005Z,23.41
2024-05-09T10:40:34.836Z,23.80
2024-05-09T10:44:24.517Z,23.05
2024-05-09T10:48:11.806Z,22.88
2024-05-09T10:51:57.483Z,23.35
2024-05-09T10:55:43.202Z,23.28
2024-05-09T10:59:36.071Z,23.74
2024-05-09T11:03:19.258Z,22.70
2024-05-09T11:07:07.541Z,22.75
2024-05-09T11:10:54.816Z,22.52
2024-05-09T11:14:40.437Z,22.05
2024-05-09T11:18:29.767Z,21.83
2024-05-09T11:22:17.845Z,21.83
2024-05-09T11:26:04.353Z,22.13
2024-05-09T11:29:52.565Z,22.17
2024-05-09T11:33:37.575Z,21.75
2024-05-09T11:37:23.371Z,21.86
2024-05-09T11:41:09.489Z,22.48
2024-05-09T11:44:57.693Z,22.07
2024-05-09T11:48:43.844Z,21.49
2024-05-09T11:52:29.581Z,21.45
2024-05-09T11:56:15.663Z,21.73
2024-05-09T12:00:01.123Z,22.18
2024-05-09T12:03:48.779Z,21.70
2024-05-09T12:07:31.952Z,21.87
2024-05-09T12:11:17.830Z,21.91
2024-05-09T12:15:06.222Z,21.77
2024-05-09T12:18:52.086Z,21.56
2024-05-09T12:22:38.809Z,21.19
2024-05-09T12:26:24.608Z,21.40
2024-05-09T12:30:20.780Z,21.07
2024-05-09T12:34:14.341Z,20.82
2024-05-09T12:38:00.197Z,20.91
2024-05-09T12:41:43.627Z,21.33
2024-05-09T12:45:32.157Z,21.52
2024-05-09T12:49:20.123Z,21.03
2024-05-09T13:06:09.082Z,21.27
2024-05-09T13:09:54.931Z,21.12
2024-05-09T13:13:40.627Z,20.91
2024-05-09T13:17:26.289Z,20.91
2024-05-09T13:21:12.116Z,20.71
2024-05-09T13:24:57.906Z,20.52
2024-05-09T13:28:43.623Z,20.22
2024-05-09T13:32:26.690Z,20.09
2024-05-09T13:36:14.973Z,19.98
2024-05-09T13:39:58.011Z,20.01
2024-05-09T13:43:43.691Z,19.92
2024-05-09T13:47:26.714Z,19.82
2024-05-09T13:51:14.619Z,19.83
2024-05-09T13:54:58.714Z,19.72
2024-05-09T13:58:44.638Z,19.62
2024-05-09T14:02:32.186Z,19.72
2024-05-09T14:06:20.466Z,19.63
2024-05-09T14:10:05.225Z,19.56
2024-05-09T14:13:52.089Z,19.52
2024-05-09T14:17:35.399Z,19.39
2024-05-09T14:21:23.722Z,19.45
2024-05-09T14:25:09.867Z,19.34
2024-05-09T14:28:55.672Z,19.31
2024-05-09T14:32:41.334Z,19.52
2024-05-09T14:36:29.710Z,19.51
2024-05-09T14:40:30.420Z,19.34
2024-05-09T14:44:21.372Z,19.44
2024-05-09T14:48:07.854Z,19.21
2024-05-09T14:51:56.375Z,19.29
2024-05-09T14:55:41.354Z,19.16
2024-05-09T14:59:28.170Z,19.25
2024-05-09T15:03:13.927Z,19.20
2024-05-09T15:07:00.454Z,19.04
2024-05-09T15:10:46.741Z,18.80
2024-05-09T15:14:29.970Z,18.77
2024-05-09T15:18:15.864Z,18.85
2024-05-09T15:22:04.615Z,18.85
2024-05-09T15:25:50.294Z,18.77
2024-05-09T15:29:36.055Z,18.75
2024-05-09T15:33:18.782Z,18.71
2024-05-09T15:37:08.740Z,18.56
2024-05-09T15:40:54.351Z,18.55
2024-05-09T15:44:37.458Z,18.50
2024-05-09T15:48:23.185Z,18.44
2024-05-09T15:52:11.896Z,18.32
2024-05-09T15:55:57.666Z,18.12
2024-05-09T15:59:43.710Z,18.03
2024-05-09T16:03:29.312Z,17.83
2024-05-09T16:07:17.719Z,17.73
2024-05-09T16:11:03.029Z,17.57
2024-05-09T16:14:51.054Z,17.43
2024-05-09T16:18:36.907Z,17.40
2024-05-09T16:22:25.284Z,17.38
2024-05-09T16:26:11.125Z,17.29
2024-05-09T16:29:55.996Z,17.20
2024-05-09T16:33:41.988Z,17.15
2024-05-09T16:37:30.439Z,17.01
2024-05-09T16:41:15.111Z,16.84
2024-05-09T16:45:02.008Z,16.66
2024-05-09T16:48:48.315Z,16.44
2024-05-09T16:52:36.729Z,16.36
2024-05-09T16:56:23.925Z,16.23
2024-05-09T17:00:18.079Z,16.04
2024-05-09T17:04:11.456Z,15.93
2024-05-09T17:08:00.172Z,15.79
2024-05-09T17:11:45.861Z,15.58
2024-05-09T17:15:31.797Z,15.40
2024-05-09T17:19:17.367Z,15.24
2024-05-09T17:23:12.865Z,15.01
2024-05-09T17:26:58.943Z,14.80
2024-05-09T17:30:44.968Z,14.59
2024-05-09T17:34:31.067Z,14.34
2024-05-09T17:38:19.575Z,14.13
2024-05-09T17:42:05.613Z,13.96
2024-05-09T17:45:51.291Z,13.79
2024-05-09T17:49:34.444Z,13.57
2024-05-09T17:53:22.903Z,13.36
2024-05-09T17:57:09.425Z,13.18
2024-05-09T18:00:55.103Z,12.95
2024-05-09T18:04:41.254Z,12.74
2024-05-09T18:08:27.006Z,12.55
2024-05-09T18:12:12.776Z,12.40
2024-05-09T18:15:58.450Z,12.19
2024-05-09T18:19:41.508Z,11.98
2024-05-09T18:23:30.930Z,11.76
2024-05-09T18:27:16.749Z,11.56
2024-05-09T18:30:59.686Z,11.39
2024-05-09T18:34:44.828Z,11.23
2024-05-09T18:38:32.996Z,11.08
2024-05-09T18:42:18.505Z,10.93
2024-05-09T18:46:01.570Z,10.84
2024-05-09T18:49:47.246Z,10.69
2024-05-09T18:53:35.444Z,10.53
2024-05-09T18:57:21.178Z,10.40
2024-05-09T19:01:07.359Z,10.32
2024-05-09T19:04:53.297Z,10.13
2024-05-09T19:08:41.219Z,10.01
2024-05-09T19:12:24.152Z,9.91
2024-05-09T19:16:10.221Z,9.76
2024-05-09T19:19:53.301Z,9.63
2024-05-09T19:23:47.125Z,9.49
2024-05-09T19:27:37.713Z,9.35
2024-05-09T19:31:24.164Z,9.17
2024-05-09T19:35:10.141Z,9.02
2024-05-09T19:38:58.371Z,8.96
2024-05-09T19:42:44.235Z,8.82
2024-05-09T19:46:30.357Z,8.67
2024-05-09T19:50:19.561Z,8.60
2024-05-09T19:54:13.672Z,8.49
2024-05-09T19:58:01.024Z,8.40
2024-05-09T20:01:48.548Z,8.29
2024-05-09T20:05:34.445Z,8.18
2024-05-09T20:09:25.586Z,8.08
2024-05-09T20:13:11.468Z,7.90
2024-05-09T20:16:57.449Z,7.84
2024-05-09T20:20:44.958Z,7.70
2024-05-09T20:24:36.520Z,7.62
2024-05-09T20:28:22.353Z,7.57
2024-05-09T20:32:08.700Z,7.49
2024-05-09T20:35:55.753Z,7.45
2024-05-09T20:39:44.243Z,7.33
2024-05-09T20:43:29.826Z,7.23
2024-05-09T20:47:12.887Z,7.14
2024-05-09T20:50:58.075Z,7.08
2024-05-09T20:54:46.376Z,7.02
2024-05-09T20:58:32.085Z,6.94
2024-05-09T21:02:18.075Z,6.92
2024-05-09T21:06:03.468Z,6.80
2024-05-09T21:09:51.726Z,6.72
2024-05-09T21:13:37.279Z,6.62
2024-05-09T21:17:23.022Z,6.52
2024-05-09T21:21:06.499Z,6.40
2024-05-09T21:24:54.753Z,6.30
2024-05-09T21:28:37.314Z,6.19
2024-05-09T21:32:33.825Z,6.15
2024-05-09T21:36:20.278Z,6.17
2024-05-09T21:40:13.790Z,6.01
2024-05-09T21:44:02.710Z,5.88
2024-05-09T21:47:45.724Z,5.95
2024-05-09T21:51:32.144Z,5.86
2024-05-09T21:55:20.412Z,5.82
2024-05-09T21:59:05.519Z,5.74
2024-05-09T22:02:48.649Z,5.67
2024-05-09T22:06:34.164Z,5.62
2024-05-09T22:10:26.886Z,5.55
2024-05-09T22:14:18.748Z,5.47
2024-05-09T22:18:01.859Z,5.38
2024-05-09T22:21:47.275Z,5.31
2024-05-09T22:25:35.585Z,5.24
2024-05-09T22:29:21.050Z,5.19
2024-05-09T22:33:07.787Z,5.10
2024-05-09T22:36:53.367Z,5.13
2024-05-09T22:40:47.482Z,5.04
2024-05-09T22:44:35.227Z,4.98
2024-05-09T22:48:21.083Z,4.91
2024-05-09T22:52:07.181Z,4.88
2024-05-09T22:55:54.959Z,4.83
2024-05-09T22:59:40.694Z,4.78
2024-05-09T23:03:23.760Z,4.74
2024-05-09T23:07:11.461Z,4.71
2024-05-09T23:10:59.815Z,4.69
2024-05-09T23:14:45.579Z,4.63
2024-05-09T23:18:31.314Z,4.59
2024-05-09T23:22:17.161Z,4.56
2024-05-09T23:26:05.677Z,4.50
2024-05-09T23:29:48.663Z,4.44
2024-05-09T23:33:34.314Z,4.37
2024-05-09T23:37:19.970Z,4.41
2024-05-09T23:41:09.226Z,4.41
2024-05-09T23:44:55.032Z,4.32
2024-05-09T23:48:40.818Z,4.30
2024-05-09T23:52:26.729Z,4.24
2024-05-09T23:56:14.427Z,4.16
